Time;durP1;ratioP1;P1;durP2;ratioP2;P2;SDS_P1;SDS_P2;PMS_P1;PMS_P2;Temp;Humidity;BMP_temperature;BMP_pressure;BME280_temperature;BME280_humidity;BME280_pressure;Samples;Min_cycle;Max_cycle;Signal;HPM_P1;HPM_P2
2020/12/30 00:02:29;;;;;;;22.50;13.43;;;4.40;71.70;;;;;;6193247;23;20055;-85
2020/12/30 00:04:59;;;;;;;21.43;14.30;;;4.50;71.90;;;;;;6193776;23;20379;-86
2020/12/30 00:07:25;;;;;;;18.77;13.87;;;4.50;71.60;;;;;;6193519;23;20458;-86
2020/12/30 00:09:51;;;;;;;23.57;15.97;;;4.60;71.70;;;;;;6194039;23;20009;-86
2020/12/30 00:12:17;;;;;;;17.77;12.13;;;4.60;71.50;;;;;;6193004;23;20432;-86
2020/12/30 00:14:44;;;;;;;19.10;13.03;;;4.60;71.60;;;;;;6193625;23;20008;-86
2020/12/30 00:17:10;;;;;;;19.57;13.10;;;4.60;71.60;;;;;;6192990;23;20000;-85
2020/12/30 00:19:35;;;;;;;16.13;11.13;;;4.60;71.60;;;;;;6193001;23;20005;-86
2020/12/30 00:22:04;;;;;;;20.10;12.83;;;4.60;71.60;;;;;;6219880;23;20482;-86
2020/12/30 00:24:30;;;;;;;18.97;12.37;;;4.60;71.40;;;;;;6193602;23;20019;-86
2020/12/30 00:26:56;;;;;;;20.97;12.07;;;4.60;71.50;;;;;;6194559;23;20040;-86
2020/12/30 00:29:21;;;;;;;16.47;11.67;;;4.60;71.60;;;;;;6194166;23;20092;-86
2020/12/30 00:31:47;;;;;;;15.53;11.43;;;4.60;71.50;;;;;;6221163;23;20071;-86
2020/12/30 00:34:13;;;;;;;18.47;12.53;;;4.60;71.30;;;;;;6195662;23;20004;-86
2020/12/30 00:36:39;;;;;;;19.13;12.13;;;4.60;71.30;;;;;;6194643;23;20011;-86
2020/12/30 00:39:06;;;;;;;26.87;13.77;;;4.60;71.40;;;;;;6194928;23;20434;-86
2020/12/30 00:41:32;;;;;;;24.53;15.63;;;4.60;71.40;;;;;;6194112;23;20094;-86
2020/12/30 00:44:00;;;;;;;35.43;19.50;;;4.60;71.20;;;;;;6194376;23;20027;-86
2020/12/30 00:46:26;;;;;;;35.90;21.07;;;4.60;71.40;;;;;;6194873;23;20054;-86
2020/12/30 00:48:52;;;;;;;41.33;24.13;;;4.60;71.40;;;;;;6194968;23;20020;-86
2020/12/30 00:51:17;;;;;;;40.07;21.77;;;4.60;71.30;;;;;;6193177;23;20001;-86
2020/12/30 00:53:44;;;;;;;37.33;23.33;;;4.50;71.30;;;;;;6221979;23;20485;-86
2020/12/30 00:56:10;;;;;;;42.23;24.13;;;4.50;71.40;;;;;;6194882;23;20001;-86
2020/12/30 00:58:36;;;;;;;36.83;22.73;;;4.50;71.40;;;;;;6194117;23;20005;-86
2020/12/30 01:01:04;;;;;;;40.23;23.53;;;4.50;71.50;;;;;;6194947;23;20000;-86
2020/12/30 01:03:30;;;;;;;45.27;23.70;;;4.50;71.50;;;;;;6195405;23;20012;-86
2020/12/30 01:05:56;;;;;;;43.57;23.77;;;4.50;71.50;;;;;;6195023;23;20320;-86
2020/12/30 01:08:22;;;;;;;40.47;23.23;;;4.50;71.50;;;;;;6195448;23;20017;-86
2020/12/30 01:10:49;;;;;;;41.27;23.90;;;4.50;71.60;;;;;;6195574;23;20394;-86
2020/12/30 01:13:14;;;;;;;37.80;22.27;;;4.50;71.50;;;;;;6195471;23;20013;-86
2020/12/30 01:15:40;;;;;;;34.53;22.20;;;4.50;71.60;;;;;;6194462;23;20416;-86
2020/12/30 01:18:06;;;;;;;34.23;21.10;;;4.50;71.60;;;;;;6193403;23;20005;-86
2020/12/30 01:20:32;;;;;;;31.07;18.70;;;4.50;71.60;;;;;;6193950;23;20083;-86
2020/12/30 01:22:58;;;;;;;25.57;16.07;;;4.50;71.60;;;;;;6221201;23;20011;-86
2020/12/30 01:25:24;;;;;;;24.57;15.93;;;4.60;71.60;;;;;;6195540;23;20417;-86
2020/12/30 01:27:50;;;;;;;28.03;18.00;;;4.50;71.60;;;;;;6220530;23;20056;-86
2020/12/30 01:30:16;;;;;;;26.93;16.70;;;4.50;71.80;;;;;;6220426;23;20000;-86
2020/12/30 01:32:42;;;;;;;24.20;16.20;;;4.50;71.70;;;;;;6193529;23;20463;-86
2020/12/30 01:35:07;;;;;;;28.83;15.83;;;4.50;72.00;;;;;;6193844;23;20067;-86
2020/12/30 01:37:33;;;;;;;25.20;14.33;;;4.50;72.00;;;;;;6221693;23;20376;-86
2020/12/30 01:39:59;;;;;;;20.63;14.33;;;4.60;71.80;;;;;;6222109;23;20039;-86
2020/12/30 01:42:25;;;;;;;21.70;13.53;;;4.60;71.70;;;;;;6192615;23;20005;-86
2020/12/30 01:44:51;;;;;;;23.87;14.80;;;4.60;71.60;;;;;;6195476;23;20076;-86
2020/12/30 01:47:17;;;;;;;23.20;15.50;;;4.60;71.70;;;;;;6191947;23;20004;-86
2020/12/30 01:49:43;;;;;;;29.63;16.93;;;4.60;71.70;;;;;;6194463;23;20009;-86
2020/12/30 01:52:09;;;;;;;28.60;17.50;;;4.50;71.80;;;;;;6220471;23;20005;-86
2020/12/30 01:54:35;;;;;;;30.67;19.23;;;4.50;71.80;;;;;;6193533;23;20451;-86
2020/12/30 01:57:03;;;;;;;33.10;19.47;;;4.60;71.80;;;;;;6192515;23;20005;-86
2020/12/30 01:59:29;;;;;;;30.73;17.47;;;4.60;71.80;;;;;;6221085;23;20496;-86
2020/12/30 02:02:03;;;;;;;31.17;18.07;;;4.60;71.80;;;;;;6193352;23;20032;-86
2020/12/30 02:04:53;;;;;;;26.40;15.90;;;4.60;71.60;;;;;;6219707;23;20451;-86
2020/12/30 02:07:22;;;;;;;26.67;16.37;;;4.60;71.60;;;;;;6192489;23;20101;-86
2020/12/30 02:09:48;;;;;;;19.53;13.10;;;4.50;71.40;;;;;;6192780;23;20012;-86
2020/12/30 02:12:14;;;;;;;16.67;9.67;;;4.50;71.60;;;;;;6193611;23;20005;-86
2020/12/30 02:14:40;;;;;;;9.13;6.77;;;4.50;71.90;;;;;;6194001;23;20420;-86
2020/12/30 02:17:12;;;;;;;7.27;5.33;;;4.50;71.60;;;;;;6219454;23;20006;-86
2020/12/30 02:19:38;;;;;;;7.80;4.33;;;4.60;71.40;;;;;;6192321;23;20008;-86
2020/12/30 02:22:05;;;;;;;5.60;3.80;;;4.60;71.40;;;;;;6192587;23;20009;-86
2020/12/30 02:24:32;;;;;;;4.10;3.07;;;4.60;71.10;;;;;;6192895;23;20008;-86
2020/12/30 02:27:00;;;;;;;3.70;2.20;;;4.70;71.10;;;;;;6193055;23;20009;-85
2020/12/30 02:29:29;;;;;;;5.43;2.20;;;4.70;70.70;;;;;;6193239;23;20016;-85
2020/12/30 02:31:55;;;;;;;2.33;1.57;;;4.80;70.30;;;;;;6192098;23;20031;-85
2020/12/30 02:34:21;;;;;;;3.23;1.80;;;4.80;69.90;;;;;;6191826;23;20087;-86
2020/12/30 02:36:47;;;;;;;3.60;2.50;;;4.70;70.20;;;;;;6192176;23;20005;-86
2020/12/30 02:39:13;;;;;;;3.63;1.97;;;4.70;69.40;;;;;;6219523;23;20428;-86
2020/12/30 02:41:39;;;;;;;5.50;2.67;;;4.70;69.30;;;;;;6219759;23;20416;-86
2020/12/30 02:44:05;;;;;;;2.80;1.57;;;4.60;69.40;;;;;;6193163;23;20001;-86
2020/12/30 02:46:31;;;;;;;5.03;2.70;;;4.60;69.40;;;;;;6193171;23;20009;-86
2020/12/30 02:48:58;;;;;;;4.93;2.77;;;4.60;69.70;;;;;;6191920;23;20030;-86
2020/12/30 02:51:23;;;;;;;3.60;1.63;;;4.60;69.70;;;;;;6191237;23;20815;-86
2020/12/30 02:53:49;;;;;;;3.30;1.93;;;4.60;69.70;;;;;;6191737;23;20004;-86
2020/12/30 02:56:17;;;;;;;4.17;2.33;;;4.60;69.50;;;;;;6218791;23;20011;-86
2020/12/30 02:58:43;;;;;;;3.47;1.70;;;4.60;69.30;;;;;;6192807;23;20005;-86
2020/12/30 03:01:13;;;;;;;4.50;2.00;;;4.50;69.30;;;;;;6191902;23;20440;-86
2020/12/30 03:03:39;;;;;;;2.07;1.40;;;4.50;69.30;;;;;;6192759;23;20012;-86
2020/12/30 03:06:05;;;;;;;3.90;2.13;;;4.60;69.60;;;;;;6193460;23;20013;-86
2020/12/30 03:08:31;;;;;;;2.87;1.67;;;4.60;69.30;;;;;;6192871;23;20001;-86
2020/12/30 03:10:57;;;;;;;5.43;2.00;;;4.60;69.20;;;;;;6192275;23;20005;-86
2020/12/30 03:13:23;;;;;;;3.67;2.10;;;4.60;69.20;;;;;;6192289;23;20442;-86
2020/12/30 03:15:49;;;;;;;4.93;1.93;;;4.50;69.20;;;;;;6192563;23;20000;-86
2020/12/30 03:18:15;;;;;;;4.53;1.63;;;4.60;69.20;;;;;;6219280;23;20828;-86
2020/12/30 03:20:40;;;;;;;2.53;1.33;;;4.50;69.10;;;;;;6191553;23;20459;-86
2020/12/30 03:23:06;;;;;;;5.37;1.40;;;4.40;68.90;;;;;;6192163;23;20004;-86
2020/12/30 03:25:32;;;;;;;5.53;2.30;;;4.40;69.00;;;;;;6192527;23;20003;-86
2020/12/30 03:27:58;;;;;;;4.97;2.53;;;4.30;69.10;;;;;;6192606;23;20028;-86
2020/12/30 03:30:24;;;;;;;4.57;2.30;;;4.30;69.20;;;;;;6192462;23;20000;-86
2020/12/30 03:32:50;;;;;;;5.60;3.17;;;4.30;69.00;;;;;;6192425;23;20072;-86
2020/12/30 03:35:16;;;;;;;3.27;1.70;;;4.20;69.00;;;;;;6191936;23;20013;-86
2020/12/30 03:37:42;;;;;;;4.20;2.27;;;4.20;69.20;;;;;;6218560;23;20035;-86
2020/12/30 03:40:07;;;;;;;4.53;2.20;;;4.20;69.00;;;;;;6189762;23;20028;-86
2020/12/30 03:42:33;;;;;;;6.10;2.30;;;4.20;69.10;;;;;;6194238;23;20080;-86
2020/12/30 03:44:59;;;;;;;4.07;1.97;;;4.30;69.20;;;;;;6221403;23;20009;-86
2020/12/30 03:47:28;;;;;;;4.90;3.30;;;4.30;68.90;;;;;;6193494;23;20008;-86
2020/12/30 03:49:54;;;;;;;8.20;4.30;;;4.20;68.50;;;;;;6194313;23;20091;-86
2020/12/30 03:52:19;;;;;;;6.87;3.77;;;4.20;68.60;;;;;;6220160;23;20029;-86
2020/12/30 03:54:45;;;;;;;4.23;2.40;;;4.20;68.70;;;;;;6221147;23;20001;-86
2020/12/30 03:57:11;;;;;;;6.30;3.23;;;4.20;68.70;;;;;;6194414;23;20000;-86
2020/12/30 03:59:36;;;;;;;4.73;2.97;;;4.20;68.50;;;;;;6195804;23;20328;-86
2020/12/30 04:02:02;;;;;;;6.20;3.47;;;4.10;68.50;;;;;;6194282;23;20032;-86
2020/12/30 04:04:28;;;;;;;5.03;3.07;;;4.10;68.40;;;;;;6195088;23;20007;-86
2020/12/30 04:06:53;;;;;;;11.13;3.90;;;4.00;68.50;;;;;;6195054;23;20040;-86
2020/12/30 04:09:19;;;;;;;5.40;2.60;;;4.00;68.60;;;;;;6196009;23;20035;-86
2020/12/30 04:11:45;;;;;;;2.93;2.10;;;3.90;68.70;;;;;;6194559;23;20435;-86
2020/12/30 04:14:10;;;;;;;4.40;2.40;;;4.00;68.50;;;;;;6195072;23;20040;-86
2020/12/30 04:16:36;;;;;;;7.70;2.87;;;3.90;68.50;;;;;;6194373;23;20004;-86
2020/12/30 04:19:02;;;;;;;4.63;2.90;;;3.90;68.30;;;;;;6195085;23;20305;-86
2020/12/30 04:21:27;;;;;;;6.07;2.90;;;3.90;68.40;;;;;;6195316;23;20009;-86
2020/12/30 04:23:54;;;;;;;5.13;2.90;;;3.90;68.40;;;;;;6222458;23;20001;-86
2020/12/30 04:26:20;;;;;;;6.03;2.73;;;3.90;68.30;;;;;;6196384;23;20012;-86
2020/12/30 04:28:46;;;;;;;5.07;3.30;;;3.90;68.20;;;;;;6194891;23;20090;-86
2020/12/30 04:31:13;;;;;;;5.77;3.17;;;3.80;68.20;;;;;;6222052;23;20427;-86
2020/12/30 04:33:39;;;;;;;11.73;6.23;;;3.80;68.10;;;;;;6194880;23;20462;-86
2020/12/30 04:36:07;;;;;;;21.90;14.17;;;3.70;68.10;;;;;;6195740;23;20416;-86
2020/12/30 04:38:34;;;;;;;20.80;13.67;;;3.70;68.40;;;;;;6195202;23;20058;-85
2020/12/30 04:41:01;;;;;;;25.87;15.83;;;3.60;68.50;;;;;;6222206;23;20072;-86
2020/12/30 04:43:33;;;;;;;35.40;17.33;;;3.60;68.70;;;;;;6194877;23;20507;-86
2020/12/30 04:45:59;;;;;;;20.80;13.65;;;3.60;68.70;;;;;;6221324;23;20008;-86
2020/12/30 04:48:26;;;;;;;17.50;10.80;;;3.60;68.70;;;;;;6195443;23;20024;-86
2020/12/30 04:50:53;;;;;;;4.47;3.07;;;3.60;69.00;;;;;;6220558;23;20008;-86
2020/12/30 04:53:23;;;;;;;5.57;3.03;;;3.70;69.10;;;;;;6194702;23;20347;-86
2020/12/30 04:55:50;;;;;;;5.67;2.80;;;3.60;68.80;;;;;;6194541;23;20016;-86
2020/12/30 04:58:18;;;;;;;3.97;2.53;;;3.70;68.70;;;;;;6195533;23;20015;-85
2020/12/30 05:00:46;;;;;;;8.33;4.30;;;3.70;68.50;;;;;;6194729;23;20383;-86
2020/12/30 05:03:12;;;;;;;6.50;3.20;;;3.70;68.50;;;;;;6195796;23;20032;-86
2020/12/30 05:05:38;;;;;;;6.23;4.07;;;3.70;68.70;;;;;;6221251;23;20032;-86
2020/12/30 05:08:15;;;;;;;10.10;5.67;;;3.80;68.50;;;;;;6220819;23;19997;-86
2020/12/30 05:10:42;;;;;;;7.90;4.33;;;3.70;68.40;;;;;;6193429;23;20007;-86
2020/12/30 05:13:09;;;;;;;6.23;3.93;;;3.80;68.30;;;;;;6194732;23;20028;-86
2020/12/30 05:15:35;;;;;;;7.37;3.93;;;3.90;68.40;;;;;;6221438;23;19997;-86
2020/12/30 05:18:04;;;;;;;6.80;3.70;;;3.90;68.40;;;;;;6195052;23;20001;-86
2020/12/30 05:20:39;;;;;;;5.13;2.93;;;3.90;68.20;;;;;;6222339;23;20000;-85
2020/12/30 05:23:08;;;;;;;4.83;3.13;;;3.90;68.10;;;;;;6194505;23;20011;-85
2020/12/30 05:25:38;;;;;;;4.33;2.50;;;3.80;67.90;;;;;;6193695;23;20301;-85
2020/12/30 05:28:05;;;;;;;7.80;4.27;;;3.80;67.70;;;;;;6193958;23;20409;-85
2020/12/30 05:30:32;;;;;;;15.27;9.20;;;3.80;67.80;;;;;;6193632;23;20422;-85
2020/12/30 05:32:59;;;;;;;15.23;10.07;;;3.70;67.90;;;;;;6194736;23;20000;-85
2020/12/30 05:35:29;;;;;;;18.00;10.83;;;3.70;68.20;;;;;;6194504;23;20062;-85
2020/12/30 05:37:55;;;;;;;25.03;14.40;;;3.70;68.30;;;;;;6221710;23;20076;-85
2020/12/30 05:40:22;;;;;;;28.57;15.33;;;3.70;68.30;;;;;;6193793;23;20029;-85
2020/12/30 05:43:10;;;;;;;23.97;15.43;;;3.70;68.40;;;;;;6217608;23;20379;-85
2020/12/30 05:45:44;;;;;;;24.30;16.33;;;3.70;68.60;;;;;;6190896;23;20011;-85
2020/12/30 05:48:10;;;;;;;23.77;14.67;;;3.60;68.60;;;;;;6194249;23;20043;-85
2020/12/30 05:50:49;;;;;;;24.67;16.20;;;3.60;68.70;;;;;;6193911;23;20004;-85
2020/12/30 05:53:15;;;;;;;19.83;14.63;;;3.50;68.70;;;;;;6193377;23;20008;-85
2020/12/30 05:55:41;;;;;;;22.37;14.40;;;3.50;68.90;;;;;;6194263;23;20004;-86
2020/12/30 05:58:17;;;;;;;20.27;13.97;;;3.50;69.10;;;;;;6193806;23;20300;-85
2020/12/30 06:00:44;;;;;;;18.97;12.47;;;3.50;69.10;;;;;;6193310;23;20320;-85
2020/12/30 06:03:14;;;;;;;15.03;10.03;;;3.50;69.20;;;;;;6193545;23;20009;-85
2020/12/30 06:05:40;;;;;;;13.73;8.50;;;3.50;69.20;;;;;;6193527;23;20083;-85
2020/12/30 06:08:06;;;;;;;19.57;11.63;;;3.50;69.40;;;;;;6218712;23;20024;-85
2020/12/30 06:10:32;;;;;;;18.20;12.63;;;3.50;69.10;;;;;;6219603;23;20109;-85
2020/12/30 06:13:00;;;;;;;20.03;14.40;;;3.50;69.20;;;;;;6193461;23;20007;-85
2020/12/30 06:15:27;;;;;;;17.63;11.63;;;3.50;69.20;;;;;;6193181;23;20012;-85
2020/12/30 06:18:04;;;;;;;13.20;7.77;;;3.50;69.30;;;;;;6220827;23;20057;-84
2020/12/30 06:20:32;;;;;;;19.83;12.60;;;3.60;69.40;;;;;;6192902;23;20029;-85
2020/12/30 06:23:01;;;;;;;18.40;9.93;;;3.50;69.20;;;;;;6193957;23;20030;-85
2020/12/30 06:25:33;;;;;;;16.17;8.13;;;3.50;69.40;;;;;;6193311;23;20000;-85
2020/12/30 06:28:16;;;;;;;13.83;8.30;;;3.60;69.40;;;;;;6193823;23;20440;-85
2020/12/30 06:30:42;;;;;;;;;;;3.60;69.00;;;;;;6194747;23;20087;-85
2020/12/30 06:33:09;;;;;;;13.80;6.37;;;3.60;69.00;;;;;;6194070;23;19989;-85
2020/12/30 06:35:37;;;;;;;10.60;6.43;;;3.60;68.90;;;;;;6193196;23;20488;-84
2020/12/30 06:38:23;;;;;;;16.83;8.60;;;3.60;68.90;;;;;;6194415;23;20051;-84
2020/12/30 06:40:56;;;;;;;15.00;7.77;;;3.70;68.80;;;;;;6193912;23;20005;-85
2020/12/30 06:43:43;;;;;;;16.37;7.43;;;3.60;68.70;;;;;;6193761;23;20426;-84
2020/12/30 06:46:13;;;;;;;29.23;13.10;;;3.60;68.90;;;;;;6193994;23;20004;-85
2020/12/30 06:48:59;;;;;;;34.27;14.03;;;3.60;68.80;;;;;;6192992;23;20039;-85
2020/12/30 06:51:25;;;;;;;39.13;14.83;;;3.60;68.60;;;;;;6193288;23;20039;-85
2020/12/30 06:53:55;;;;;;;42.30;16.13;;;3.50;68.30;;;;;;6194104;23;20420;-85
2020/12/30 06:56:45;;;;;;;32.77;14.77;;;3.50;68.30;;;;;;6194018;23;20015;-85
2020/12/30 06:59:31;;;;;;;27.17;13.37;;;3.40;68.70;;;;;;6193758;23;20013;-85
2020/12/30 07:01:58;;;;;;;17.07;9.33;;;3.50;69.00;;;;;;6194727;23;20450;-85
2020/12/30 07:04:25;;;;;;;18.13;9.53;;;3.50;68.60;;;;;;6194342;23;20020;-85
2020/12/30 07:06:53;;;;;;;16.13;8.50;;;3.50;68.50;;;;;;6193473;23;20336;-85
2020/12/30 07:09:34;;;;;;;20.23;10.77;;;3.50;68.60;;;;;;6193292;23;20043;-85
2020/12/30 07:12:02;;;;;;;19.83;10.40;;;3.60;68.50;;;;;;6193608;23;20054;-85
2020/12/30 07:14:30;;;;;;;19.07;10.17;;;3.60;68.60;;;;;;6220808;23;20298;-85
2020/12/30 07:17:08;;;;;;;16.43;9.63;;;3.60;68.30;;;;;;6195461;23;20084;-85
2020/12/30 07:19:36;;;;;;;18.47;10.57;;;3.50;68.20;;;;;;6195504;23;20004;-85
2020/12/30 07:22:07;;;;;;;12.70;6.33;;;3.50;68.00;;;;;;6195423;23;20008;-85
2020/12/30 07:24:53;;;;;;;14.10;7.23;;;3.50;67.90;;;;;;6196289;23;20012;-85
2020/12/30 07:27:21;;;;;;;15.47;9.40;;;3.40;67.90;;;;;;6195704;23;20024;-85
2020/12/30 07:29:48;;;;;;;19.77;11.53;;;3.40;68.10;;;;;;6195236;23;20336;-85
2020/12/30 07:32:15;;;;;;;29.53;17.00;;;3.40;68.20;;;;;;6195653;23;20015;-85
2020/12/30 07:34:48;;;;;;;17.53;12.03;;;3.40;68.40;;;;;;6219563;23;20435;-85
2020/12/30 07:37:14;;;;;;;;;;;3.40;68.60;;;;;;6194990;23;20068;-85
2020/12/30 07:39:42;;;;;;;12.93;7.73;;;3.50;68.30;;;;;;6195185;23;19900;-85
2020/12/30 07:42:15;;;;;;;12.87;7.87;;;3.50;67.90;;;;;;6192665;23;20385;-85
2020/12/30 07:44:49;;;;;;;15.93;8.93;;;3.50;68.30;;;;;;6191656;23;20008;-85
2020/12/30 07:47:16;;;;;;;16.23;8.23;;;3.50;68.30;;;;;;6193875;23;20033;-85
2020/12/30 07:49:42;;;;;;;13.33;8.10;;;3.50;68.20;;;;;;6219129;23;20035;-85
2020/12/30 07:52:09;;;;;;;14.20;8.60;;;3.40;68.10;;;;;;6194154;23;20008;-85
2020/12/30 07:54:35;;;;;;;12.90;9.10;;;3.40;68.10;;;;;;6192634;23;20008;-85
2020/12/30 07:57:05;;;;;;;15.57;10.33;;;3.30;67.90;;;;;;6191908;23;20319;-85
2020/12/30 07:59:33;;;;;;;17.57;10.63;;;3.40;68.30;;;;;;6193385;23;20102;-85
2020/12/30 08:02:01;;;;;;;18.80;11.10;;;3.30;68.10;;;;;;6194144;23;20008;-85
2020/12/30 08:04:29;;;;;;;15.23;9.23;;;3.30;68.00;;;;;;6195160;23;20005;-85
2020/12/30 08:06:56;;;;;;;13.43;9.00;;;3.30;68.00;;;;;;6193507;23;20011;-85
2020/12/30 08:09:29;;;;;;;14.30;8.47;;;3.40;68.10;;;;;;6221631;23;20301;-85
2020/12/30 08:12:01;;;;;;;14.27;8.83;;;3.30;67.60;;;;;;6192300;23;20032;-85
2020/12/30 08:14:28;;;;;;;15.00;7.20;;;3.20;67.80;;;;;;6194488;23;20013;-85
2020/12/30 08:16:54;;;;;;;14.67;8.60;;;3.10;67.80;;;;;;6194355;23;20016;-85
2020/12/30 08:19:47;;;;;;;12.93;7.77;;;3.00;67.90;;;;;;6191114;23;20008;-85
2020/12/30 08:22:20;;;;;;;14.05;8.30;;;3.00;68.50;;;;;;6186156;23;20031;-85
2020/12/30 08:24:50;;;;;;;13.48;9.20;;;3.20;68.40;;;;;;6193532;23;20009;-85
2020/12/30 08:27:18;;;;;;;14.63;8.50;;;3.20;68.30;;;;;;6192484;23;20012;-85
2020/12/30 08:29:45;;;;;;;11.97;7.63;;;3.20;67.80;;;;;;6193147;23;20078;-85
2020/12/30 08:32:23;;;;;;;15.53;9.20;;;3.20;68.00;;;;;;6193963;23;20009;-85
2020/12/30 08:34:56;;;;;;;14.67;8.73;;;3.30;68.10;;;;;;6193197;23;20383;-85
2020/12/30 08:37:28;;;;;;;14.80;8.32;;;3.40;68.10;;;;;;6193963;23;20447;-85
2020/12/30 08:40:03;;;;;;;15.63;8.80;;;3.40;67.90;;;;;;6194768;23;20000;-85
2020/12/30 08:42:53;;;;;;;14.07;8.00;;;3.50;68.20;;;;;;6191031;23;20009;-85
2020/12/30 08:45:38;;;;;;;14.27;8.77;;;3.60;68.30;;;;;;6193011;23;20019;-85
2020/12/30 08:48:15;;;;;;;14.97;8.57;;;3.60;67.80;;;;;;6193620;23;20760;-85
2020/12/30 08:50:41;;;;;;;16.07;9.60;;;3.60;68.10;;;;;;6219023;23;20035;-85
2020/12/30 08:53:08;;;;;;;18.37;9.87;;;3.70;68.10;;;;;;6193858;23;20082;-85
2020/12/30 08:55:34;;;;;;;15.87;9.23;;;3.70;67.60;;;;;;6194512;23;20027;-85
2020/12/30 08:58:00;;;;;;;15.57;9.43;;;3.70;67.80;;;;;;6195620;23;20001;-85
2020/12/30 09:00:32;;;;;;;18.63;10.80;;;3.70;67.20;;;;;;6221665;23;20004;-85
2020/12/30 09:03:14;;;;;;;22.85;13.57;;;3.70;68.00;;;;;;6195571;23;20011;-85
2020/12/30 09:05:41;;;;;;;17.50;10.68;;;3.70;67.30;;;;;;6195069;23;20436;-85
2020/12/30 09:08:22;;;;;;;20.30;11.57;;;3.70;67.30;;;;;;6194492;23;20019;-85
2020/12/30 09:10:48;;;;;;;20.03;11.27;;;3.60;67.20;;;;;;6191269;23;20347;-85
2020/12/30 09:13:21;;;;;;;18.57;11.27;;;3.70;67.60;;;;;;6220503;23;20080;-85
2020/12/30 09:15:54;;;;;;;21.63;10.60;;;3.70;67.50;;;;;;6220462;23;20007;-85
2020/12/30 09:18:23;;;;;;;16.20;9.90;;;3.80;67.30;;;;;;6193738;23;20007;-85
2020/12/30 09:20:49;;;;;;;17.13;9.80;;;3.80;67.10;;;;;;6191953;23;20475;-85
2020/12/30 09:23:15;;;;;;;19.50;10.27;;;3.90;67.00;;;;;;6195271;23;19996;-85
2020/12/30 09:25:41;;;;;;;18.67;10.73;;;4.00;67.00;;;;;;6194556;23;20011;-85
2020/12/30 09:28:15;;;;;;;19.33;11.30;;;4.00;66.90;;;;;;6222651;23;20039;-85
2020/12/30 09:30:42;;;;;;;21.50;10.87;;;4.00;66.50;;;;;;6194593;23;20000;-85
2020/12/30 09:33:16;;;;;;;14.30;8.77;;;4.10;66.80;;;;;;6192833;23;20009;-85
2020/12/30 09:35:43;;;;;;;15.20;8.93;;;4.00;66.40;;;;;;6195870;23;20015;-86
2020/12/30 09:38:09;;;;;;;13.73;8.10;;;3.70;65.70;;;;;;6192734;23;20005;-85
2020/12/30 09:40:42;;;;;;;15.97;8.53;;;3.60;65.70;;;;;;6193813;23;20042;-85
2020/12/30 09:43:19;;;;;;;14.27;7.80;;;3.60;66.20;;;;;;6195228;23;20084;-85
2020/12/30 09:45:46;;;;;;;16.50;7.70;;;3.60;65.80;;;;;;6195366;23;20408;-85
2020/12/30 09:48:17;;;;;;;16.17;8.07;;;3.50;65.70;;;;;;6194544;23;20343;-84
2020/12/30 09:50:44;;;;;;;14.67;7.43;;;3.60;66.00;;;;;;6194409;23;20004;-85
2020/12/30 09:53:10;;;;;;;13.60;7.33;;;3.60;66.00;;;;;;6194905;23;20009;-85
2020/12/30 09:55:36;;;;;;;14.93;8.03;;;3.60;65.70;;;;;;6194686;23;20015;-84
2020/12/30 09:58:03;;;;;;;13.87;7.63;;;3.70;65.60;;;;;;6195394;23;20455;-85
2020/12/30 10:00:29;;;;;;;12.97;8.00;;;3.90;66.50;;;;;;6194665;23;20083;-85
2020/12/30 10:02:55;;;;;;;18.17;6.63;;;4.00;65.40;;;;;;6194485;23;20001;-85
2020/12/30 10:05:21;;;;;;;17.73;9.83;;;4.00;65.30;;;;;;6194845;23;20009;-85
2020/12/30 10:07:47;;;;;;;13.10;7.27;;;4.10;65.50;;;;;;6220650;23;20000;-85
2020/12/30 10:10:12;;;;;;;9.40;6.53;;;4.20;64.90;;;;;;6195010;23;20787;-85
2020/12/30 10:12:39;;;;;;;12.17;6.57;;;4.10;64.70;;;;;;6194647;23;20412;-85
2020/12/30 10:15:09;;;;;;;10.30;5.83;;;4.00;64.30;;;;;;6193942;23;20011;-85
2020/12/30 10:17:36;;;;;;;10.23;6.00;;;4.00;64.30;;;;;;6192733;23;20001;-84
2020/12/30 10:20:05;;;;;;;10.57;6.60;;;4.00;64.40;;;;;;6190649;23;20011;-85
2020/12/30 10:22:33;;;;;;;13.27;6.43;;;4.20;64.40;;;;;;6191154;23;20012;-84
2020/12/30 10:24:59;;;;;;;15.03;9.17;;;4.30;63.70;;;;;;6191400;23;20439;-85
2020/12/30 10:27:25;;;;;;;8.27;5.43;;;4.20;63.40;;;;;;6190047;23;20428;-85
2020/12/30 10:29:51;;;;;;;9.27;5.60;;;4.20;63.10;;;;;;6217948;23;20023;-85
2020/12/30 10:32:17;;;;;;;9.67;5.30;;;4.10;63.20;;;;;;6190423;23;20009;-84
2020/12/30 10:34:42;;;;;;;9.93;5.67;;;4.20;63.40;;;;;;6216616;23;20026;-85
2020/12/30 10:37:08;;;;;;;9.63;5.40;;;4.20;63.10;;;;;;6190132;23;20008;-85
2020/12/30 10:39:35;;;;;;;10.33;5.90;;;4.30;63.50;;;;;;6188582;23;20490;-84
2020/12/30 10:42:01;;;;;;;10.23;5.87;;;4.60;63.20;;;;;;6216531;23;20797;-84
2020/12/30 10:44:28;;;;;;;9.63;4.93;;;4.70;62.90;;;;;;6191862;23;20039;-84
2020/12/30 10:46:53;;;;;;;10.77;5.93;;;4.80;62.50;;;;;;6192437;23;20015;-84
2020/12/30 10:49:20;;;;;;;13.60;5.63;;;4.80;62.10;;;;;;6217597;23;20416;-84
2020/12/30 10:51:47;;;;;;;9.90;5.27;;;4.70;62.10;;;;;;6192315;23;20075;-84
2020/12/30 10:54:13;;;;;;;13.27;5.90;;;4.80;62.30;;;;;;6219489;23;20075;-84
2020/12/30 10:56:39;;;;;;;10.07;5.97;;;4.80;61.70;;;;;;6193034;23;20313;-84
2020/12/30 10:59:05;;;;;;;12.30;6.90;;;4.70;61.70;;;;;;6191070;23;20474;-84
2020/12/30 11:01:31;;;;;;;13.90;6.10;;;4.70;61.80;;;;;;6192584;23;20080;-84
2020/12/30 11:03:56;;;;;;;11.20;6.13;;;4.90;62.20;;;;;;6192620;23;20336;-84
2020/12/30 11:06:22;;;;;;;13.30;6.30;;;5.10;62.20;;;;;;6220241;23;20000;-84
2020/12/30 11:08:48;;;;;;;10.33;6.30;;;5.10;61.70;;;;;;6193236;23;20005;-84
2020/12/30 11:11:14;;;;;;;12.67;6.17;;;5.20;61.60;;;;;;6193642;23;20305;-84
2020/12/30 11:13:41;;;;;;;8.87;5.80;;;5.20;61.70;;;;;;6189425;23;20011;-84
2020/12/30 11:16:09;;;;;;;12.20;6.07;;;5.30;61.40;;;;;;6193546;23;20000;-84
2020/12/30 11:18:35;;;;;;;9.83;5.83;;;5.10;60.50;;;;;;6193677;23;20141;-84
2020/12/30 11:21:01;;;;;;;11.27;5.60;;;5.00;60.70;;;;;;6192404;23;20001;-84
2020/12/30 11:23:26;;;;;;;15.07;6.17;;;5.00;61.00;;;;;;6192422;23;20076;-84
2020/12/30 11:25:54;;;;;;;9.17;5.83;;;4.90;60.90;;;;;;6194210;23;20467;-84
2020/12/30 11:28:20;;;;;;;13.23;7.00;;;4.90;60.80;;;;;;6193431;23;20017;-84
2020/12/30 11:30:46;;;;;;;10.27;5.97;;;4.80;61.10;;;;;;6193118;23;20403;-84
2020/12/30 11:33:12;;;;;;;10.50;6.53;;;5.00;61.40;;;;;;6193328;23;20005;-84
2020/12/30 11:35:38;;;;;;;9.63;6.47;;;5.20;61.60;;;;;;6194303;23;20061;-84
2020/12/30 11:38:05;;;;;;;11.17;6.23;;;5.30;61.50;;;;;;6191690;23;20823;-84
2020/12/30 11:40:31;;;;;;;9.73;5.60;;;5.30;60.80;;;;;;6193138;23;20005;-84
2020/12/30 11:42:56;;;;;;;10.97;5.10;;;5.20;60.40;;;;;;6192424;23;20000;-84
2020/12/30 11:45:22;;;;;;;8.63;4.80;;;5.10;60.30;;;;;;6193257;23;20012;-84
2020/12/30 11:47:48;;;;;;;9.07;4.83;;;4.90;60.20;;;;;;6192535;23;20012;-84
2020/12/30 11:50:14;;;;;;;14.10;4.63;;;4.80;60.30;;;;;;6220075;23;20008;-84
2020/12/30 11:52:41;;;;;;;9.30;4.47;;;4.80;60.30;;;;;;6194315;23;20004;-84
2020/12/30 11:55:07;;;;;;;11.53;5.03;;;4.70;60.30;;;;;;6220870;23;19997;-84
2020/12/30 11:57:33;;;;;;;9.13;4.73;;;4.80;60.50;;;;;;6194416;23;20059;-84
2020/12/30 11:59:58;;;;;;;9.87;5.30;;;4.70;60.20;;;;;;6193270;23;20332;-84
2020/12/30 12:02:24;;;;;;;9.30;4.57;;;4.70;60.10;;;;;;6194083;23;20383;-84
2020/12/30 12:04:50;;;;;;;6.73;4.83;;;4.70;60.20;;;;;;6194993;23;20043;-84
2020/12/30 12:07:15;;;;;;;10.43;7.57;;;4.60;59.90;;;;;;6194305;23;20324;-84
2020/12/30 12:09:41;;;;;;;13.17;5.20;;;4.70;60.40;;;;;;6195171;23;20015;-84
2020/12/30 12:12:07;;;;;;;9.77;5.30;;;4.80;60.40;;;;;;6195156;23;20020;-84
2020/12/30 12:14:32;;;;;;;8.83;4.83;;;4.90;60.00;;;;;;6196188;23;20509;-84
2020/12/30 12:16:58;;;;;;;13.00;5.50;;;4.90;60.10;;;;;;6194417;23;20356;-84
2020/12/30 12:19:25;;;;;;;11.33;7.27;;;4.90;60.10;;;;;;6194242;23;20005;-84
2020/12/30 12:21:51;;;;;;;14.13;7.80;;;5.00;60.30;;;;;;6194498;23;20001;-84
2020/12/30 12:24:18;;;;;;;13.70;8.53;;;5.00;60.70;;;;;;6221017;23;20462;-84
2020/12/30 12:26:44;;;;;;;10.93;5.57;;;5.10;60.80;;;;;;6222469;23;20049;-84
2020/12/30 12:29:35;;;;;;;10.13;5.43;;;5.10;60.80;;;;;;6195727;23;20024;-84
2020/12/30 12:32:04;;;;;;;12.10;5.70;;;5.10;60.50;;;;;;6223355;23;20016;-84
2020/12/30 12:34:30;;;;;;;8.83;5.37;;;5.20;60.50;;;;;;6196498;23;20009;-84
2020/12/30 12:36:56;;;;;;;9.37;5.00;;;5.30;60.30;;;;;;6195360;23;20064;-84
2020/12/30 12:39:22;;;;;;;6.57;4.17;;;5.30;59.80;;;;;;6194240;23;20028;-83
2020/12/30 12:41:51;;;;;;;12.03;4.73;;;5.40;59.80;;;;;;6220579;23;19996;-84
2020/12/30 12:44:17;;;;;;;9.80;4.87;;;5.40;59.50;;;;;;6192722;23;20005;-84
2020/12/30 12:46:47;;;;;;;9.47;4.83;;;5.40;59.40;;;;;;6219400;23;20008;-85
2020/12/30 12:49:13;;;;;;;12.80;4.77;;;5.30;59.00;;;;;;6216996;23;20025;-85
2020/12/30 12:51:50;;;;;;;9.20;4.67;;;5.20;59.10;;;;;;6196308;23;20091;-85
2020/12/30 12:54:16;;;;;;;9.00;4.23;;;5.20;59.20;;;;;;6193879;23;20036;-84